Time;durP1;ratioP1;P1;durP2;ratioP2;P2;SDS_P1;SDS_P2;PMS_P1;PMS_P2;Temp;Humidity;BMP_temperature;BMP_pressure;BME280_temperature;BME280_humidity;BME280_pressure;Samples;Min_cycle;Max_cycle;Signal;HPM_P1;HPM_P2
2021/10/14 00:00:11;;;;;;;6.77;3.57;;;7.40;99.90;;;;;;5141016;27;20074;-72
2021/10/14 00:02:37;;;;;;;6.68;3.08;;;7.40;99.90;;;;;;5122018;27;20110;-73
2021/10/14 00:05:04;;;;;;;4.25;2.90;;;7.30;99.90;;;;;;5140246;27;20024;-73
2021/10/14 00:07:30;;;;;;;4.78;2.78;;;7.30;99.90;;;;;;5140899;27;20106;-73
2021/10/14 00:09:57;;;;;;;5.03;3.70;;;7.40;99.90;;;;;;5141641;27;20057;-73
2021/10/14 00:12:23;;;;;;;5.63;2.85;;;7.40;99.90;;;;;;5123198;27;20261;-73
2021/10/14 00:14:48;;;;;;;5.77;2.80;;;7.40;99.90;;;;;;5120751;27;20025;-72
2021/10/14 00:17:14;;;;;;;5.20;2.97;;;7.30;99.90;;;;;;5122048;27;20277;-72
2021/10/14 00:19:42;;;;;;;7.07;2.90;;;7.30;99.90;;;;;;5123147;27;20023;-72
2021/10/14 00:22:08;;;;;;;4.95;2.63;;;7.40;99.90;;;;;;5140703;27;20023;-72
2021/10/14 00:24:34;;;;;;;8.80;2.83;;;7.40;99.90;;;;;;5139441;27;20030;-72
2021/10/14 00:26:59;;;;;;;4.43;3.10;;;7.60;99.90;;;;;;5136678;27;20479;-71
2021/10/14 00:29:25;;;;;;;5.07;2.80;;;7.50;99.90;;;;;;5136801;27;20260;-72
2021/10/14 00:31:51;;;;;;;5.07;2.73;;;7.50;99.90;;;;;;5136392;27;20023;-73
2021/10/14 00:34:16;;;;;;;4.77;2.97;;;7.50;99.90;;;;;;5136395;27;20272;-73
2021/10/14 00:36:42;;;;;;;8.97;3.17;;;7.50;99.90;;;;;;5140382;27;20023;-72
2021/10/14 00:39:08;;;;;;;5.13;2.95;;;7.60;99.90;;;;;;5122199;27;20345;-73
2021/10/14 00:41:33;;;;;;;5.40;3.50;;;7.80;99.90;;;;;;5137456;27;20019;-73
2021/10/14 00:43:59;;;;;;;4.22;2.97;;;7.70;99.90;;;;;;5117746;27;20072;-73
2021/10/14 00:46:25;;;;;;;3.90;2.70;;;7.70;99.90;;;;;;5117752;27;20503;-72
2021/10/14 00:48:52;;;;;;;5.32;2.60;;;7.80;99.90;;;;;;5117484;27;20030;-72
2021/10/14 00:51:17;;;;;;;6.35;3.20;;;7.90;99.90;;;;;;5117789;27;20078;-72
2021/10/14 00:53:43;;;;;;;5.53;2.50;;;7.90;99.90;;;;;;5135971;27;20475;-72
2021/10/14 00:56:09;;;;;;;3.72;2.50;;;7.80;99.90;;;;;;5136116;27;20475;-72
2021/10/14 00:58:36;;;;;;;4.50;2.78;;;7.80;99.90;;;;;;5117549;27;20161;-72
2021/10/14 01:01:03;;;;;;;5.97;2.70;;;7.70;99.90;;;;;;5117230;27;20074;-72
2021/10/14 01:03:29;;;;;;;6.00;2.70;;;7.80;99.90;;;;;;5117275;27;20106;-72
2021/10/14 01:05:55;;;;;;;3.20;2.33;;;7.70;99.90;;;;;;5117137;27;20161;-73
2021/10/14 01:08:20;;;;;;;3.20;2.20;;;7.50;99.90;;;;;;5117000;27;20118;-73
2021/10/14 01:10:46;;;;;;;4.67;2.43;;;7.40;99.90;;;;;;5116986;27;20027;-72
2021/10/14 01:13:12;;;;;;;7.90;2.43;;;7.40;99.90;;;;;;5135420;27;20083;-72
2021/10/14 01:15:38;;;;;;;3.97;2.25;;;7.30;99.90;;;;;;5116786;27;20630;-73
2021/10/14 01:18:04;;;;;;;3.40;2.20;;;7.40;99.90;;;;;;5116999;27;20118;-73
2021/10/14 01:20:29;;;;;;;4.80;2.33;;;7.60;99.90;;;;;;5134989;27;20039;-73
2021/10/14 01:22:56;;;;;;;3.47;2.43;;;7.80;99.90;;;;;;5135206;27;20027;-73
2021/10/14 01:25:23;;;;;;;4.95;2.60;;;7.80;99.90;;;;;;5135099;27;20539;-73
2021/10/14 01:27:49;;;;;;;2.95;1.90;;;7.60;99.90;;;;;;5116712;27;20020;-73
2021/10/14 01:30:15;;;;;;;4.50;2.10;;;7.50;99.90;;;;;;5134805;27;20424;-72
2021/10/14 01:32:41;;;;;;;4.17;2.10;;;7.40;99.90;;;;;;5134987;27;20098;-72
2021/10/14 01:35:07;;;;;;;5.37;2.50;;;7.30;99.90;;;;;;5116480;27;20265;-72
2021/10/14 01:37:33;;;;;;;;;;;7.20;99.90;;;;;;5116623;27;20027;-72
2021/10/14 01:39:59;;;;;;;4.53;2.50;;;7.10;99.90;;;;;;5134584;27;19903;-72
2021/10/14 01:42:25;;;;;;;3.63;2.53;;;7.10;99.90;;;;;;5134720;27;20020;-73
2021/10/14 01:44:51;;;;;;;5.22;2.53;;;7.00;99.90;;;;;;5116166;27;20490;-73
2021/10/14 01:47:17;;;;;;;3.97;2.60;;;7.00;99.90;;;;;;5134704;27;20029;-73
2021/10/14 01:49:42;;;;;;;3.77;2.77;;;7.00;99.90;;;;;;5116020;27;20438;-73
2021/10/14 01:52:08;;;;;;;8.50;2.77;;;7.00;99.90;;;;;;5134585;27;20536;-73
2021/10/14 01:54:34;;;;;;;4.43;2.97;;;7.00;99.90;;;;;;5134478;27;20026;-73
2021/10/14 01:56:59;;;;;;;5.35;3.38;;;7.00;99.90;;;;;;5134312;27;20390;-73
2021/10/14 01:59:25;;;;;;;8.70;4.90;;;7.00;99.90;;;;;;5115489;27;20023;-73
2021/10/14 02:01:51;;;;;;;9.48;5.05;;;7.00;99.90;;;;;;5116016;27;20059;-72
2021/10/14 02:04:16;;;;;;;5.20;2.40;;;6.90;99.90;;;;;;5116351;27;20122;-73
2021/10/14 02:06:42;;;;;;;4.23;2.90;;;7.00;99.90;;;;;;5134665;27;20024;-73
2021/10/14 02:09:07;;;;;;;6.73;3.30;;;7.00;99.90;;;;;;5134102;27;20023;-73
2021/10/14 02:11:33;;;;;;;11.80;5.47;;;6.90;99.90;;;;;;5134508;27;20034;-73
2021/10/14 02:13:59;;;;;;;7.10;3.35;;;6.90;99.90;;;;;;5115763;27;20376;-73
2021/10/14 02:16:25;;;;;;;18.37;8.57;;;6.80;99.90;;;;;;5134121;27;20031;-73
2021/10/14 02:18:50;;;;;;;15.27;8.70;;;6.80;99.90;;;;;;5116402;27;20113;-71
2021/10/14 02:21:17;;;;;;;10.40;6.07;;;6.80;99.90;;;;;;5117921;27;20031;-71
2021/10/14 02:23:43;;;;;;;19.02;9.80;;;6.70;99.90;;;;;;5136502;27;20388;-72
2021/10/14 02:26:09;;;;;;;5.73;3.40;;;6.70;99.90;;;;;;5136455;27;20027;-72
2021/10/14 02:28:34;;;;;;;13.75;8.32;;;6.70;99.90;;;;;;5117043;27;20391;-72
2021/10/14 02:31:00;;;;;;;5.83;2.83;;;6.60;99.90;;;;;;5116971;28;20080;-71
2021/10/14 02:33:26;;;;;;;4.83;2.73;;;6.70;99.90;;;;;;5135651;28;20034;-71
2021/10/14 02:35:51;;;;;;;4.50;2.70;;;6.60;99.90;;;;;;5117551;28;20023;-72
2021/10/14 02:38:17;;;;;;;6.65;2.60;;;6.60;99.90;;;;;;5137120;28;20267;-73
2021/10/14 02:40:43;;;;;;;3.60;2.23;;;6.60;99.90;;;;;;5136832;28;20120;-73
2021/10/14 02:43:09;;;;;;;3.70;2.60;;;6.50;99.90;;;;;;5117761;28;20019;-72
2021/10/14 02:45:34;;;;;;;4.13;2.20;;;6.50;99.90;;;;;;5116898;28;20357;-73
2021/10/14 02:48:00;;;;;;;4.83;2.67;;;6.50;99.90;;;;;;5135358;28;20027;-73
2021/10/14 02:50:26;;;;;;;5.10;2.87;;;6.50;99.90;;;;;;5115913;28;20019;-72
2021/10/14 02:52:51;;;;;;;4.82;3.10;;;6.40;99.90;;;;;;5133998;28;20033;-72
2021/10/14 02:55:17;;;;;;;5.60;2.77;;;6.50;99.90;;;;;;5115502;28;20127;-72
2021/10/14 02:57:43;;;;;;;6.70;2.80;;;6.50;99.90;;;;;;5134013;28;20068;-72
2021/10/14 03:00:09;;;;;;;6.00;2.93;;;6.50;99.90;;;;;;5134055;28;20019;-72
2021/10/14 03:02:34;;;;;;;7.60;3.00;;;6.50;99.90;;;;;;5115714;28;20064;-73
2021/10/14 03:05:00;;;;;;;5.93;3.07;;;6.60;99.90;;;;;;5134223;28;20019;-73
2021/10/14 03:07:25;;;;;;;4.57;3.20;;;6.60;99.90;;;;;;5134025;28;20024;-73
2021/10/14 03:09:51;;;;;;;6.70;3.60;;;6.60;99.90;;;;;;5115549;28;20023;-72
2021/10/14 03:12:17;;;;;;;7.70;3.80;;;6.50;99.90;;;;;;5137650;27;20041;-72
2021/10/14 03:14:43;;;;;;;5.03;3.87;;;6.50;99.90;;;;;;5138860;27;20023;-72
2021/10/14 03:17:11;;;;;;;6.05;3.13;;;6.50;99.90;;;;;;5137720;27;20019;-72
2021/10/14 03:19:37;;;;;;;5.45;3.55;;;6.50;99.90;;;;;;5137781;27;20384;-72
2021/10/14 03:22:03;;;;;;;5.97;3.40;;;6.50;99.90;;;;;;5119276;27;20016;-73
2021/10/14 03:24:29;;;;;;;;;;;6.40;99.90;;;;;;5119567;27;20490;-72
2021/10/14 03:26:55;;;;;;;7.45;3.70;;;6.40;99.90;;;;;;5137526;27;19951;-72
2021/10/14 03:29:20;;;;;;;5.30;3.07;;;6.40;99.90;;;;;;5119469;27;20385;-72
2021/10/14 03:31:46;;;;;;;9.87;4.00;;;6.50;99.90;;;;;;5119092;27;20628;-72
2021/10/14 03:34:12;;;;;;;5.80;2.97;;;6.70;99.90;;;;;;5118858;27;20033;-73
2021/10/14 03:36:37;;;;;;;4.47;3.13;;;6.90;99.90;;;;;;5118675;27;20087;-71
2021/10/14 03:39:04;;;;;;;5.10;2.45;;;7.00;99.90;;;;;;5118687;27;20071;-72
2021/10/14 03:41:30;;;;;;;4.90;2.92;;;6.90;99.90;;;;;;5137035;27;20441;-73
2021/10/14 03:43:55;;;;;;;4.63;2.50;;;6.80;99.90;;;;;;5118528;27;20172;-73
2021/10/14 03:46:21;;;;;;;5.13;2.50;;;6.60;99.90;;;;;;5118574;27;20023;-73
2021/10/14 03:48:46;;;;;;;4.67;2.50;;;6.50;99.90;;;;;;5118535;27;20026;-72
2021/10/14 03:51:12;;;;;;;5.13;2.47;;;6.40;99.90;;;;;;5118373;27;20023;-72
2021/10/14 03:53:38;;;;;;;6.57;2.30;;;6.40;99.90;;;;;;5118418;27;20038;-72
2021/10/14 03:56:04;;;;;;;3.47;2.57;;;6.40;99.90;;;;;;5136845;27;20027;-72
2021/10/14 03:58:29;;;;;;;4.68;2.50;;;6.30;99.90;;;;;;5118322;27;20022;-72
2021/10/14 04:00:55;;;;;;;5.40;2.50;;;6.30;99.90;;;;;;5136787;27;20023;-72
2021/10/14 04:03:21;;;;;;;3.20;2.40;;;6.30;99.90;;;;;;5118284;27;20020;-72
2021/10/14 04:05:46;;;;;;;6.80;2.67;;;6.30;99.90;;;;;;5136577;27;20019;-72
2021/10/14 04:08:12;;;;;;;5.57;2.83;;;6.30;99.90;;;;;;5117896;27;20031;-71
2021/10/14 04:10:38;;;;;;;5.27;3.13;;;6.20;99.90;;;;;;5136436;27;20073;-72
2021/10/14 04:13:05;;;;;;;4.23;2.60;;;6.30;99.90;;;;;;5117967;27;20058;-72
2021/10/14 04:15:30;;;;;;;3.63;2.47;;;6.20;99.90;;;;;;5117877;27;20699;-72
2021/10/14 04:17:56;;;;;;;7.33;2.83;;;6.20;99.90;;;;;;5117823;27;20027;-72
2021/10/14 04:20:21;;;;;;;7.07;3.00;;;6.20;99.90;;;;;;5136116;27;20034;-72
2021/10/14 04:22:47;;;;;;;6.33;3.17;;;6.20;99.90;;;;;;5136149;27;20046;-72
2021/10/14 04:25:13;;;;;;;5.00;2.67;;;6.20;99.90;;;;;;5136324;27;20027;-71
2021/10/14 04:27:39;;;;;;;5.72;2.97;;;6.20;99.90;;;;;;5136569;27;20023;-71
2021/10/14 04:30:06;;;;;;;4.82;2.97;;;6.20;99.90;;;;;;5136157;27;20471;-71
2021/10/14 04:32:31;;;;;;;;;;;6.20;99.90;;;;;;5136649;27;20026;-71
2021/10/14 04:34:57;;;;;;;4.53;2.78;;;6.20;99.90;;;;;;5136277;27;19948;-71
2021/10/14 04:37:23;;;;;;;5.80;2.77;;;6.20;99.90;;;;;;5138886;27;20532;-71
2021/10/14 04:39:50;;;;;;;5.10;2.53;;;6.20;99.90;;;;;;5141218;27;20047;-71
2021/10/14 04:42:16;;;;;;;4.53;2.53;;;6.20;99.90;;;;;;5136667;27;20263;-71
2021/10/14 04:44:42;;;;;;;7.07;2.95;;;6.20;99.90;;;;;;5136190;27;20033;-71
2021/10/14 04:47:08;;;;;;;6.72;2.95;;;6.20;99.90;;;;;;5135761;27;20043;-71
2021/10/14 04:49:34;;;;;;;4.35;2.47;;;6.20;99.90;;;;;;5135735;27;20027;-71
2021/10/14 04:52:01;;;;;;;4.68;2.78;;;6.20;99.90;;;;;;5117139;27;20031;-71
2021/10/14 04:54:27;;;;;;;6.60;2.67;;;6.20;99.90;;;;;;5135804;27;20164;-71
2021/10/14 04:56:52;;;;;;;7.53;3.73;;;6.20;99.90;;;;;;5117276;27;20123;-71
2021/10/14 04:59:18;;;;;;;6.00;3.63;;;6.20;99.90;;;;;;5116971;27;20023;-71
2021/10/14 05:01:44;;;;;;;6.50;3.10;;;6.30;99.90;;;;;;5135551;27;20252;-71
2021/10/14 05:04:09;;;;;;;9.35;2.97;;;6.20;99.90;;;;;;5135769;27;20094;-71
2021/10/14 05:06:35;;;;;;;7.30;3.47;;;6.20;99.90;;;;;;5135766;27;20027;-71
2021/10/14 05:09:01;;;;;;;6.03;3.27;;;6.20;99.90;;;;;;5141588;27;20031;-71
2021/10/14 05:11:26;;;;;;;6.23;3.10;;;6.20;99.90;;;;;;5137451;27;20022;-72
2021/10/14 05:13:52;;;;;;;8.17;3.70;;;6.10;99.90;;;;;;5135117;27;20103;-71
2021/10/14 05:16:18;;;;;;;5.88;3.40;;;6.10;99.90;;;;;;5116924;27;20475;-71
2021/10/14 05:18:44;;;;;;;7.53;3.40;;;6.10;99.90;;;;;;5116667;27;20027;-71
2021/10/14 05:21:09;;;;;;;6.03;3.13;;;6.10;99.90;;;;;;5116665;27;20344;-69
2021/10/14 05:23:35;;;;;;;8.30;3.20;;;6.10;99.90;;;;;;5135087;27;20479;-69
2021/10/14 05:26:09;;;;;;;7.57;2.77;;;6.20;99.90;;;;;;5135284;27;20249;-69
2021/10/14 05:28:34;;;;;;;7.85;3.25;;;6.10;99.90;;;;;;5133787;27;20027;-70
2021/10/14 05:31:00;;;;;;;6.87;3.00;;;6.20;99.90;;;;;;5116955;27;20035;-69
2021/10/14 05:33:26;;;;;;;4.87;2.80;;;6.10;99.90;;;;;;5115721;27;20387;-70
2021/10/14 05:35:51;;;;;;;7.63;3.17;;;6.10;99.90;;;;;;5135252;27;20105;-70
2021/10/14 05:38:17;;;;;;;6.17;3.20;;;6.10;99.90;;;;;;5134937;27;20503;-69
2021/10/14 05:40:45;;;;;;;6.50;3.30;;;6.10;99.90;;;;;;5116735;27;20026;-69
2021/10/14 05:43:11;;;;;;;8.95;3.78;;;6.10;99.90;;;;;;5135336;27;20023;-68
2021/10/14 05:45:37;;;;;;;10.77;6.17;;;6.10;99.90;;;;;;5134864;27;20482;-68
2021/10/14 05:48:03;;;;;;;18.17;7.43;;;6.20;99.90;;;;;;5115863;27;20023;-67
2021/10/14 05:50:29;;;;;;;11.63;4.53;;;6.20;99.90;;;;;;5134784;27;20026;-69
2021/10/14 05:52:54;;;;;;;13.70;6.97;;;6.20;99.90;;;;;;5134795;27;20083;-68
2021/10/14 05:55:20;;;;;;;11.47;6.20;;;6.20;99.90;;;;;;5134284;27;20480;-68
2021/10/14 05:57:46;;;;;;;9.90;4.63;;;6.20;99.90;;;;;;5134221;27;20280;-68
2021/10/14 06:00:12;;;;;;;16.20;7.87;;;6.20;99.90;;;;;;5115968;27;20114;-68
2021/10/14 06:02:38;;;;;;;9.77;5.15;;;6.20;99.90;;;;;;5134337;27;20436;-69
2021/10/14 06:05:04;;;;;;;22.10;10.27;;;6.20;99.90;;;;;;5134330;27;20034;-68
2021/10/14 06:07:29;;;;;;;11.07;6.50;;;6.20;99.90;;;;;;5116095;27;20023;-69
2021/10/14 06:09:55;;;;;;;16.43;6.83;;;6.20;99.90;;;;;;5134568;27;20472;-68
2021/10/14 06:12:20;;;;;;;12.70;6.70;;;6.30;99.90;;;;;;5116732;27;20061;-69
2021/10/14 06:14:46;;;;;;;16.77;7.67;;;6.30;99.90;;;;;;5134122;27;20068;-68
2021/10/14 06:17:12;;;;;;;19.37;9.67;;;6.30;99.90;;;;;;5115891;27;20023;-70
2021/10/14 06:19:37;;;;;;;11.07;4.93;;;6.40;99.90;;;;;;5133854;27;20401;-69
2021/10/14 06:22:03;;;;;;;15.03;8.53;;;6.40;99.90;;;;;;5134157;27;20043;-69
2021/10/14 06:24:29;;;;;;;10.80;5.47;;;6.40;99.90;;;;;;5134158;27;20023;-69
2021/10/14 06:26:55;;;;;;;25.20;13.10;;;6.40;99.90;;;;;;5115735;27;20023;-69
2021/10/14 06:29:21;;;;;;;10.02;5.00;;;6.50;99.90;;;;;;5115639;27;20092;-69
2021/10/14 06:31:47;;;;;;;17.70;8.77;;;6.50;99.90;;;;;;5115562;28;20475;-69
2021/10/14 06:34:12;;;;;;;7.97;4.37;;;6.50;99.90;;;;;;5133753;28;20062;-69
2021/10/14 06:36:38;;;;;;;12.40;6.43;;;6.50;99.90;;;;;;5115257;28;20055;-70
2021/10/14 06:39:04;;;;;;;9.40;5.73;;;6.60;99.90;;;;;;5133986;28;20474;-70
2021/10/14 06:41:29;;;;;;;11.37;6.20;;;6.60;99.90;;;;;;5133822;28;20467;-70
2021/10/14 06:43:55;;;;;;;10.17;5.97;;;6.60;99.90;;;;;;5134135;28;20092;-70
2021/10/14 06:46:21;;;;;;;13.10;6.73;;;6.60;99.90;;;;;;5119198;27;20026;-70
2021/10/14 06:48:46;;;;;;;31.73;13.03;;;6.60;99.90;;;;;;5138312;27;20027;-69
2021/10/14 06:51:12;;;;;;;21.87;9.33;;;6.70;99.90;;;;;;5119939;27;20023;-69
2021/10/14 06:53:37;;;;;;;17.77;7.03;;;6.70;99.90;;;;;;5138840;27;20023;-69
2021/10/14 06:56:03;;;;;;;12.57;5.33;;;6.80;99.90;;;;;;5138135;27;20019;-69
2021/10/14 06:58:29;;;;;;;12.02;7.38;;;7.00;99.90;;;;;;5138095;27;20019;-70
2021/10/14 07:00:54;;;;;;;10.93;5.53;;;7.00;99.90;;;;;;5119122;27;20019;-74
2021/10/14 07:03:20;;;;;;;8.07;4.63;;;7.00;99.90;;;;;;5119279;27;20062;-70
2021/10/14 07:05:46;;;;;;;6.03;4.30;;;7.10;99.90;;;;;;5137688;27;20035;-69
2021/10/14 07:08:12;;;;;;;8.17;5.20;;;7.20;99.90;;;;;;5138042;27;20062;-69
2021/10/14 07:10:37;;;;;;;10.60;5.03;;;7.40;99.90;;;;;;5137617;27;20318;-69
2021/10/14 07:13:06;;;;;;;8.80;4.73;;;7.40;99.90;;;;;;5137534;27;20031;-69
2021/10/14 07:15:32;;;;;;;10.18;5.40;;;7.40;99.90;;;;;;5119195;27;20399;-70
2021/10/14 07:17:59;;;;;;;10.13;5.18;;;7.30;99.90;;;;;;5137779;27;20023;-69
2021/10/14 07:20:25;;;;;;;8.43;4.10;;;7.30;99.90;;;;;;5119680;27;20027;-69
2021/10/14 07:22:51;;;;;;;6.50;3.90;;;7.30;99.90;;;;;;5120270;27;20030;-70
2021/10/14 07:25:16;;;;;;;8.48;4.25;;;7.50;99.90;;;;;;5138167;27;20023;-70
2021/10/14 07:27:42;;;;;;;10.07;4.93;;;7.60;99.90;;;;;;5119167;27;20027;-69
2021/10/14 07:30:08;;;;;;;5.70;4.23;;;7.70;99.90;;;;;;5137327;27;20042;-69
2021/10/14 07:32:34;;;;;;;8.55;4.75;;;7.80;99.90;;;;;;5118823;27;20060;-69
2021/10/14 07:34:59;;;;;;;7.13;4.30;;;7.90;99.90;;;;;;5137236;27;20027;-69
2021/10/14 07:37:25;;;;;;;8.30;5.20;;;8.00;99.90;;;;;;5136971;27;20023;-69
2021/10/14 07:39:51;;;;;;;8.03;4.43;;;8.00;99.90;;;;;;5118547;27;20031;-68
2021/10/14 07:42:16;;;;;;;9.50;4.57;;;8.10;99.90;;;;;;5118692;27;20023;-70
2021/10/14 07:44:42;;;;;;;8.60;4.37;;;8.10;99.90;;;;;;5137285;27;20019;-69
2021/10/14 07:47:08;;;;;;;13.10;6.03;;;8.10;99.90;;;;;;5118437;27;20054;-70
2021/10/14 07:49:34;;;;;;;8.23;4.50;;;8.10;99.90;;;;;;5136997;27;20024;-69
2021/10/14 07:51:59;;;;;;;6.50;4.20;;;8.20;99.90;;;;;;5118841;27;20818;-69
2021/10/14 07:54:25;;;;;;;6.35;5.00;;;8.40;99.90;;;;;;5118475;27;20027;-70
2021/10/14 07:56:51;;;;;;;6.00;4.07;;;8.50;99.90;;;;;;5135896;27;20475;-70
2021/10/14 07:59:17;;;;;;;11.05;4.80;;;8.60;99.90;;;;;;5118517;27;20018;-70
2021/10/14 08:01:43;;;;;;;9.02;4.75;;;8.70;99.90;;;;;;5136589;27;20027;-70
2021/10/14 08:04:09;;;;;;;10.75;4.63;;;8.90;99.90;;;;;;5136561;27;20019;-69
2021/10/14 08:06:35;;;;;;;7.53;4.27;;;8.90;99.90;;;;;;5136692;27;20471;-70
2021/10/14 08:09:02;;;;;;;;;;;9.00;99.90;;;;;;5118586;27;20487;-70
2021/10/14 08:11:27;;;;;;;12.57;5.03;;;9.10;99.90;;;;;;5136434;27;20284;-70
2021/10/14 08:13:53;;;;;;;5.97;3.80;;;9.10;99.90;;;;;;5136585;27;20023;-71
2021/10/14 08:16:19;;;;;;;9.10;4.87;;;9.10;99.90;;;;;;5136740;27;20019;-70
2021/10/14 08:18:44;;;;;;;7.45;4.60;;;9.00;99.90;;;;;;5118212;27;20416;-69
2021/10/14 08:21:10;;;;;;;7.17;4.37;;;9.10;99.90;;;;;;5122558;22;20043;-65
2021/10/14 08:23:36;;;;;;;8.35;5.00;;;9.10;99.90;;;;;;5116177;28;20027;-65
2021/10/14 08:26:02;;;;;;;8.27;5.00;;;9.20;99.90;;;;;;5115986;28;20046;-64
2021/10/14 08:28:28;;;;;;;8.68;4.38;;;9.40;99.90;;;;;;5115868;28;20024;-65
2021/10/14 08:30:54;;;;;;;6.65;3.45;;;9.60;99.90;;;;;;5115605;28;20035;-66
2021/10/14 08:33:20;;;;;;;8.10;4.40;;;9.70;99.90;;;;;;5115760;28;20051;-66
2021/10/14 08:35:46;;;;;;;8.70;4.93;;;9.90;99.90;;;;;;5115698;28;20471;-65
2021/10/14 08:38:12;;;;;;;6.97;4.30;;;10.10;99.90;;;;;;5097557;28;20349;-64
2021/10/14 08:40:40;;;;;;;6.47;3.80;;;10.20;99.90;;;;;;5115889;28;20030;-65
2021/10/14 08:43:17;;;;;;;7.70;4.53;;;10.40;99.90;;;;;;5115465;28;20080;-65
2021/10/14 08:45:46;;;;;;;6.93;4.40;;;10.70;99.90;;;;;;5115914;28;20098;-66
2021/10/14 08:48:12;;;;;;;6.55;4.28;;;10.90;99.90;;;;;;5115535;28;20361;-65
2021/10/14 08:50:41;;;;;;;6.32;3.90;;;11.00;99.90;;;;;;5115789;28;20464;-66
2021/10/14 08:53:08;;;;;;;7.35;4.38;;;11.10;99.90;;;;;;5115502;28;20039;-65
2021/10/14 08:55:37;;;;;;;6.80;4.60;;;11.40;99.90;;;;;;5115807;28;20073;-65
2021/10/14 08:58:07;;;;;;;8.00;4.50;;;11.60;99.90;;;;;;5115665;28;20028;-65
2021/10/14 09:00:36;;;;;;;6.18;4.13;;;11.70;99.90;;;;;;5097045;28;20526;-65
2021/10/14 09:03:25;;;;;;;8.50;4.85;;;11.90;99.90;;;;;;5115248;28;20015;-65
2021/10/14 09:05:51;;;;;;;7.93;4.90;;;12.50;99.90;;;;;;5115285;28;20027;-65
2021/10/14 09:08:39;;;;;;;10.18;4.68;;;12.80;99.90;;;;;;5096229;28;20027;-65
2021/10/14 09:11:11;;;;;;;7.25;4.47;;;12.80;99.90;;;;;;5114967;28;20048;-65
2021/10/14 09:13:45;;;;;;;8.65;4.43;;;12.90;99.90;;;;;;5115209;28;20015;-66
2021/10/14 09:16:33;;;;;;;8.60;4.38;;;13.00;99.90;;;;;;5115441;28;20364;-66
2021/10/14 09:19:19;;;;;;;8.02;3.97;;;13.20;99.90;;;;;;5114957;28;20026;-66
2021/10/14 09:21:52;;;;;;;6.15;3.58;;;13.40;99.90;;;;;;5114547;28;20110;-65
2021/10/14 09:24:31;;;;;;;6.82;3.92;;;13.50;99.90;;;;;;5114680;28;20024;-65
2021/10/14 09:27:00;;;;;;;8.18;3.83;;;13.50;99.90;;;;;;5114725;28;20023;-65
2021/10/14 09:29:27;;;;;;;10.05;4.47;;;13.50;99.90;;;;;;5114959;28;20062;-65
2021/10/14 09:32:02;;;;;;;6.38;3.40;;;13.60;99.90;;;;;;5114371;28;20046;-65
2021/10/14 09:34:39;;;;;;;5.95;3.72;;;13.50;99.90;;;;;;5115130;28;20080;-65
2021/10/14 09:37:24;;;;;;;;;;;13.50;99.90;;;;;;5097810;28;20118;-65
2021/10/14 09:40:09;;;;;;;7.95;3.95;;;13.80;99.90;;;;;;5114611;28;19904;-65
2021/10/14 09:45:33;;;;;;;6.43;4.05;;;14.30;99.90;;;;;;5114927;28;20055;-66
2021/10/14 09:48:08;;;;;;;7.60;3.80;;;15.00;99.90;;;;;;5114234;28;20069;-66
2021/10/14 09:50:38;;;;;;;7.55;3.70;;;16.10;99.90;;;;;;5114257;28;20020;-66
2021/10/14 09:53:08;;;;;;;8.43;3.47;;;18.00;97.90;;;;;;5114294;28;20020;-66
2021/10/14 09:55:34;;;;;;;4.80;3.67;;;20.30;94.10;;;;;;5114350;28;20353;-65
2021/10/14 09:58:01;;;;;;;6.85;3.78;;;22.30;89.80;;;;;;5114352;28;20026;-65
2021/10/14 10:00:29;;;;;;;5.50;3.47;;;23.10;84.70;;;;;;5114549;28;20023;-66
2021/10/14 10:02:54;;;;;;;7.78;3.97;;;22.70;83.60;;;;;;5114733;28;20096;-66
2021/10/14 10:05:21;;;;;;;6.32;3.58;;;22.70;82.60;;;;;;5096155;28;20483;-65
2021/10/14 10:07:48;;;;;;;8.30;4.57;;;23.80;81.30;;;;;;5095843;28;20036;-66
2021/10/14 10:10:18;;;;;;;4.50;3.60;;;25.10;77.10;;;;;;5113686;28;20028;-65
2021/10/14 10:12:46;;;;;;;6.47;3.78;;;26.20;73.60;;;;;;5114680;28;20011;-66
2021/10/14 10:15:12;;;;;;;8.20;3.85;;;26.80;70.60;;;;;;5114127;28;20027;-66
2021/10/14 10:17:42;;;;;;;5.38;3.45;;;27.50;68.20;;;;;;5113834;28;20035;-66
2021/10/14 10:20:37;;;;;;;9.57;4.13;;;27.20;66.70;;;;;;5114185;28;20023;-64
2021/10/14 10:23:03;;;;;;;4.80;3.30;;;28.00;64.80;;;;;;5095858;28;20077;-66
2021/10/14 10:25:36;;;;;;;5.93;3.67;;;29.00;63.00;;;;;;5095793;28;20019;-66
2021/10/14 10:28:03;;;;;;;7.32;3.65;;;29.30;61.70;;;;;;5114324;28;20028;-67
2021/10/14 10:30:29;;;;;;;5.95;3.30;;;29.60;60.50;;;;;;5113699;28;20015;-66
2021/10/14 10:32:55;;;;;;;6.82;3.38;;;29.50;59.70;;;;;;5114546;28;20027;-66
2021/10/14 10:35:39;;;;;;;6.13;3.25;;;29.00;59.90;;;;;;5114084;28;20016;-66
2021/10/14 10:38:15;;;;;;;9.10;5.20;;;28.10;59.80;;;;;;5113798;28;20059;-66
2021/10/14 10:40:43;;;;;;;7.53;4.45;;;26.90;61.30;;;;;;5113770;28;20081;-67
2021/10/14 10:43:18;;;;;;;5.65;3.63;;;26.10;62.20;;;;;;5095721;28;20031;-66
2021/10/14 10:45:48;;;;;;;7.75;4.10;;;25.00;64.00;;;;;;5095861;28;20055;-66
2021/10/14 10:48:15;;;;;;;8.82;4.47;;;24.20;66.00;;;;;;5114329;28;20051;-66
2021/10/14 10:50:40;;;;;;;7.55;4.60;;;23.40;67.90;;;;;;5113668;28;20028;-66
2021/10/14 10:53:09;;;;;;;6.82;4.10;;;22.30;69.30;;;;;;5113842;28;20027;-66
2021/10/14 10:55:46;;;;;;;10.73;5.70;;;21.00;73.10;;;;;;5114148;28;20024;-65
2021/10/14 10:58:14;;;;;;;5.88;3.78;;;19.90;75.80;;;;;;5096136;28;20028;-67
2021/10/14 11:00:41;;;;;;;9.38;3.33;;;18.90;78.20;;;;;;5114322;28;20393;-66
2021/10/14 11:03:13;;;;;;;12.27;7.18;;;18.30;80.10;;;;;;5113774;28;20444;-67
2021/10/14 11:05:51;;;;;;;8.13;3.25;;;18.00;83.00;;;;;;5095654;28;20031;-66
2021/10/14 11:08:25;;;;;;;5.53;3.05;;;17.70;84.40;;;;;;5113745;28;20073;-66
2021/10/14 11:11:08;;;;;;;8.18;3.53;;;17.50;85.60;;;;;;5113455;28;20020;-66
2021/10/14 11:13:36;;;;;;;5.82;3.08;;;17.20;87.70;;;;;;5113075;28;20016;-66
2021/10/14 11:16:04;;;;;;;7.32;3.35;;;17.00;88.00;;;;;;5113542;28;20032;-65
2021/10/14 11:18:30;;;;;;;10.95;6.38;;;16.90;88.70;;;;;;5113925;28;20024;-65
2021/10/14 11:21:02;;;;;;;8.70;3.65;;;16.70;89.40;;;;;;5095254;28;20392;-66
2021/10/14 11:23:40;;;;;;;8.13;4.38;;;16.60;90.40;;;;;;5114033;28;20024;-65
2021/10/14 11:26:13;;;;;;;11.48;4.45;;;16.40;90.90;;;;;;5113699;28;20024;-65
2021/10/14 11:29:02;;;;;;;9.85;5.30;;;16.20;91.80;;;;;;5095705;28;20030;-66
2021/10/14 11:31:31;;;;;;;7.50;3.20;;;16.00;92.30;;;;;;5114327;28;20034;-65
2021/10/14 11:34:07;;;;;;;9.18;3.75;;;15.90;92.00;;;;;;5116837;28;20103;-65
2021/10/14 11:36:33;;;;;;;8.98;6.10;;;15.70;93.00;;;;;;5117082;28;20500;-67
2021/10/14 11:39:10;;;;;;;9.38;3.67;;;15.60;93.90;;;;;;5117191;28;20468;-65
2021/10/14 11:41:37;;;;;;;6.80;3.17;;;15.60;94.20;;;;;;5117209;28;20020;-66
2021/10/14 11:44:06;;;;;;;5.63;2.85;;;15.40;93.70;;;;;;5117237;28;20020;-65
2021/10/14 11:46:35;;;;;;;5.10;2.80;;;15.30;94.60;;;;;;5117014;28;20463;-66
2021/10/14 11:49:03;;;;;;;7.20;2.38;;;15.30;94.30;;;;;;5117318;28;20089;-66
2021/10/14 11:51:30;;;;;;;6.22;3.65;;;15.20;94.80;;;;;;5118314;28;20031;-66
2021/10/14 11:54:07;;;;;;;8.82;2.83;;;15.20;94.90;;;;;;5118310;28;20475;-66
2021/10/14 11:56:42;;;;;;;7.95;2.70;;;15.20;95.30;;;;;;5118465;28;20186;-67
2021/10/14 11:59:08;;;;;;;8.02;2.40;;;15.30;95.40;;;;;;5118324;28;20024;-66
2021/10/14 12:01:46;;;;;;;6.13;2.25;;;15.30;95.20;;;;;;5118512;28;20030;-66
2021/10/14 12:04:15;;;;;;;7.35;2.72;;;15.40;95.30;;;;;;5119389;28;20020;-66
2021/10/14 12:06:42;;;;;;;8.48;4.15;;;15.20;95.20;;;;;;5118279;28;20114;-66
2021/10/14 12:09:08;;;;;;;6.80;2.60;;;15.10;95.30;;;;;;5117796;28;20027;-67
2021/10/14 12:11:33;;;;;;;10.82;2.35;;;15.10;95.40;;;;;;5117516;28;20113;-67
2021/10/14 12:14:02;;;;;;;4.13;2.33;;;15.20;95.30;;;;;;5099598;28;20028;-66
2021/10/14 12:16:29;;;;;;;6.70;2.17;;;15.20;95.10;;;;;;5117923;28;20020;-65
2021/10/14 12:19:08;;;;;;;6.57;2.33;;;15.10;95.40;;;;;;5116987;28;20016;-65
2021/10/14 12:21:36;;;;;;;5.35;2.45;;;15.10;95.20;;;;;;5116389;28;20089;-66
2021/10/14 12:24:08;;;;;;;6.15;2.20;;;15.10;95.40;;;;;;5099355;28;20068;-66
2021/10/14 12:26:46;;;;;;;7.00;2.30;;;15.00;95.60;;;;;;5099118;28;20026;-65
2021/10/14 12:29:21;;;;;;;4.88;1.95;;;14.80;95.10;;;;;;5118483;28;20027;-65
2021/10/14 12:31:47;;;;;;;7.00;2.60;;;14.80;95.60;;;;;;5117238;28;20031;-65
2021/10/14 12:34:14;;;;;;;4.90;2.20;;;14.90;96.30;;;;;;5116550;28;20487;-65
2021/10/14 12:36:47;;;;;;;6.43;2.63;;;15.00;96.10;;;;;;5116974;28;20089;-64
2021/10/14 12:39:23;;;;;;;5.30;1.95;;;15.00;95.50;;;;;;5098199;28;20020;-65
2021/10/14 12:41:57;;;;;;;6.93;2.28;;;15.00;95.40;;;;;;5098595;28;20022;-66
2021/10/14 12:44:35;;;;;;;4.72;2.05;;;15.10;95.50;;;;;;5116479;28;20057;-64
2021/10/14 12:47:04;;;;;;;8.07;2.53;;;15.10;95.50;;;;;;5116798;28;20031;-65
2021/10/14 12:51:59;;;;;;;5.50;2.10;;;15.30;95.70;;;;;;5118531;28;20023;-65
2021/10/14 12:54:26;;;;;;;3.30;2.22;;;15.40;95.50;;;;;;5119177;28;20051;-66
2021/10/14 12:56:59;;;;;;;4.53;2.08;;;15.50;95.30;;;;;;5119108;28;20024;-66
2021/10/14 12:59:27;;;;;;;4.47;1.90;;;15.40;95.20;;;;;;5118715;28;20024;-66